sensor_id;sensor_type;location;lat;lon;timestamp;P1;durP1;ratioP1;P2;durP2;ratioP2
73266;SDS011;61495;53.400;7.608;2022-12-07T00:03:32;1.05;;;0.30;;
73266;SDS011;61495;53.400;7.608;2022-12-07T00:05:58;3.83;;;0.90;;
73266;SDS011;61495;53.400;7.608;2022-12-07T00:08:25;3.67;;;0.70;;
73266;SDS011;61495;53.400;7.608;2022-12-07T00:10:50;2.90;;;0.90;;
73266;SDS011;61495;53.400;7.608;2022-12-07T00:13:16;2.78;;;0.65;;
73266;SDS011;61495;53.400;7.608;2022-12-07T00:15:41;2.78;;;0.65;;
73266;SDS011;61495;53.400;7.608;2022-12-07T00:18:06;1.88;;;0.73;;
73266;SDS011;61495;53.400;7.608;2022-12-07T00:20:32;6.13;;;0.85;;
73266;SDS011;61495;53.400;7.608;2022-12-07T00:22:58;2.00;;;0.70;;
73266;SDS011;61495;53.400;7.608;2022-12-07T00:25:24;2.13;;;0.43;;
73266;SDS011;61495;53.400;7.608;2022-12-07T00:27:51;1.80;;;0.63;;
73266;SDS011;61495;53.400;7.608;2022-12-07T00:30:18;3.08;;;0.75;;
73266;SDS011;61495;53.400;7.608;2022-12-07T00:32:43;3.67;;;0.65;;
73266;SDS011;61495;53.400;7.608;2022-12-07T00:35:09;3.00;;;0.50;;
73266;SDS011;61495;53.400;7.608;2022-12-07T00:37:34;3.22;;;0.60;;
73266;SDS011;61495;53.400;7.608;2022-12-07T00:39:59;2.88;;;0.77;;
73266;SDS011;61495;53.400;7.608;2022-12-07T00:42:25;3.85;;;0.80;;
73266;SDS011;61495;53.400;7.608;2022-12-07T00:44:50;3.13;;;0.80;;
73266;SDS011;61495;53.400;7.608;2022-12-07T00:47:15;1.65;;;0.73;;
73266;SDS011;61495;53.400;7.608;2022-12-07T00:49:41;3.08;;;0.90;;
73266;SDS011;61495;53.400;7.608;2022-12-07T00:52:06;8.63;;;0.82;;
73266;SDS011;61495;53.400;7.608;2022-12-07T00:54:31;6.07;;;2.45;;
73266;SDS011;61495;53.400;7.608;2022-12-07T00:56:57;3.00;;;1.10;;
73266;SDS011;61495;53.400;7.608;2022-12-07T00:59:22;3.25;;;1.00;;
73266;SDS011;61495;53.400;7.608;2022-12-07T01:01:48;5.30;;;1.05;;
73266;SDS011;61495;53.400;7.608;2022-12-07T01:04:13;4.00;;;1.05;;
73266;SDS011;61495;53.400;7.608;2022-12-07T01:06:38;3.00;;;1.13;;
73266;SDS011;61495;53.400;7.608;2022-12-07T01:09:04;2.50;;;1.10;;
73266;SDS011;61495;53.400;7.608;2022-12-07T01:11:31;4.30;;;1.02;;
73266;SDS011;61495;53.400;7.608;2022-12-07T01:13:57;5.07;;;1.30;;
73266;SDS011;61495;53.400;7.608;2022-12-07T01:16:25;4.63;;;1.38;;
73266;SDS011;61495;53.400;7.608;2022-12-07T01:18:53;5.80;;;1.63;;
73266;SDS011;61495;53.400;7.608;2022-12-07T01:21:21;4.53;;;1.52;;
73266;SDS011;61495;53.400;7.608;2022-12-07T01:23:48;4.70;;;1.33;;
73266;SDS011;61495;53.400;7.608;2022-12-07T01:26:15;4.05;;;2.05;;
73266;SDS011;61495;53.400;7.608;2022-12-07T01:28:42;6.38;;;1.35;;
73266;SDS011;61495;53.400;7.608;2022-12-07T01:31:11;2.10;;;0.80;;
73266;SDS011;61495;53.400;7.608;2022-12-07T01:33:40;3.35;;;0.80;;
73266;SDS011;61495;53.400;7.608;2022-12-07T01:36:20;4.10;;;1.30;;
73266;SDS011;61495;53.400;7.608;2022-12-07T01:38:51;4.00;;;0.98;;
73266;SDS011;61495;53.400;7.608;2022-12-07T01:41:21;3.35;;;0.75;;
73266;SDS011;61495;53.400;7.608;2022-12-07T01:46:38;3.70;;;1.10;;
73266;SDS011;61495;53.400;7.608;2022-12-07T01:49:04;1.45;;;0.32;;
73266;SDS011;61495;53.400;7.608;2022-12-07T01:51:32;3.42;;;0.88;;
73266;SDS011;61495;53.400;7.608;2022-12-07T01:53:59;2.80;;;0.80;;
73266;SDS011;61495;53.400;7.608;2022-12-07T01:56:26;1.33;;;0.13;;
73266;SDS011;61495;53.400;7.608;2022-12-07T01:58:54;1.00;;;0.22;;
73266;SDS011;61495;53.400;7.608;2022-12-07T02:01:22;1.20;;;0.35;;
73266;SDS011;61495;53.400;7.608;2022-12-07T02:03:47;3.55;;;0.63;;
73266;SDS011;61495;53.400;7.608;2022-12-07T02:06:19;0.93;;;0.30;;
73266;SDS011;61495;53.400;7.608;2022-12-07T02:08:47;2.65;;;0.50;;
73266;SDS011;61495;53.400;7.608;2022-12-07T02:11:12;3.72;;;0.70;;
73266;SDS011;61495;53.400;7.608;2022-12-07T02:13:39;4.35;;;0.52;;
73266;SDS011;61495;53.400;7.608;2022-12-07T02:16:09;3.30;;;0.68;;
73266;SDS011;61495;53.400;7.608;2022-12-07T02:30:51;0.82;;;0.40;;
73266;SDS011;61495;53.400;7.608;2022-12-07T02:33:37;2.63;;;0.45;;
73266;SDS011;61495;53.400;7.608;2022-12-07T02:38:48;3.60;;;0.52;;
73266;SDS011;61495;53.400;7.608;2022-12-07T02:41:25;2.65;;;0.50;;
73266;SDS011;61495;53.400;7.608;2022-12-07T02:43:56;1.65;;;0.47;;
73266;SDS011;61495;53.400;7.608;2022-12-07T02:46:26;2.50;;;0.55;;
73266;SDS011;61495;53.400;7.608;2022-12-07T02:48:56;3.15;;;0.70;;
73266;SDS011;61495;53.400;7.608;2022-12-07T02:51:24;4.57;;;0.68;;
73266;SDS011;61495;53.400;7.608;2022-12-07T02:53:50;2.83;;;0.50;;
73266;SDS011;61495;53.400;7.608;2022-12-07T02:59:14;0.73;;;0.73;;
73266;SDS011;61495;53.400;7.608;2022-12-07T03:07:47;3.53;;;0.70;;
73266;SDS011;61495;53.400;7.608;2022-12-07T03:18:52;3.15;;;0.75;;
73266;SDS011;61495;53.400;7.608;2022-12-07T03:21:26;2.92;;;0.50;;
73266;SDS011;61495;53.400;7.608;2022-12-07T03:23:56;3.00;;;0.40;;
73266;SDS011;61495;53.400;7.608;2022-12-07T03:26:28;0.73;;;0.32;;
73266;SDS011;61495;53.400;7.608;2022-12-07T03:28:58;1.80;;;0.43;;
73266;SDS011;61495;53.400;7.608;2022-12-07T03:31:29;2.20;;;0.70;;
73266;SDS011;61495;53.400;7.608;2022-12-07T03:34:10;1.25;;;0.52;;
73266;SDS011;61495;53.400;7.608;2022-12-07T03:37:29;1.30;;;0.20;;
73266;SDS011;61495;53.400;7.608;2022-12-07T03:42:44;1.10;;;0.40;;
73266;SDS011;61495;53.400;7.608;2022-12-07T03:45:11;3.05;;;0.70;;
73266;SDS011;61495;53.400;7.608;2022-12-07T03:47:42;3.80;;;0.52;;
73266;SDS011;61495;53.400;7.608;2022-12-07T03:53:15;4.93;;;0.75;;
73266;SDS011;61495;53.400;7.608;2022-12-07T03:55:49;4.82;;;1.45;;
73266;SDS011;61495;53.400;7.608;2022-12-07T03:58:19;5.70;;;0.90;;
73266;SDS011;61495;53.400;7.608;2022-12-07T04:00:47;5.07;;;1.30;;
73266;SDS011;61495;53.400;7.608;2022-12-07T04:03:13;4.38;;;0.82;;
73266;SDS011;61495;53.400;7.608;2022-12-07T04:05:39;3.40;;;1.13;;
73266;SDS011;61495;53.400;7.608;2022-12-07T04:08:05;7.22;;;1.10;;
73266;SDS011;61495;53.400;7.608;2022-12-07T04:10:31;3.08;;;1.10;;
73266;SDS011;61495;53.400;7.608;2022-12-07T04:12:56;4.85;;;1.00;;
73266;SDS011;61495;53.400;7.608;2022-12-07T04:15:22;4.90;;;0.95;;
73266;SDS011;61495;53.400;7.608;2022-12-07T04:17:47;8.00;;;1.77;;
73266;SDS011;61495;53.400;7.608;2022-12-07T04:20:13;4.18;;;0.90;;
73266;SDS011;61495;53.400;7.608;2022-12-07T04:22:38;3.95;;;0.80;;
73266;SDS011;61495;53.400;7.608;2022-12-07T04:25:04;1.50;;;0.43;;
73266;SDS011;61495;53.400;7.608;2022-12-07T04:27:30;2.00;;;0.60;;
73266;SDS011;61495;53.400;7.608;2022-12-07T04:29:55;1.70;;;0.52;;
73266;SDS011;61495;53.400;7.608;2022-12-07T04:32:21;2.85;;;0.90;;
73266;SDS011;61495;53.400;7.608;2022-12-07T04:34:47;3.10;;;0.85;;
73266;SDS011;61495;53.400;7.608;2022-12-07T04:37:12;0.73;;;0.52;;
73266;SDS011;61495;53.400;7.608;2022-12-07T04:39:38;4.95;;;0.60;;
73266;SDS011;61495;53.400;7.608;2022-12-07T04:42:03;0.22;;;0.20;;
73266;SDS011;61495;53.400;7.608;2022-12-07T04:44:29;3.25;;;0.43;;
73266;SDS011;61495;53.400;7.608;2022-12-07T04:46:55;0.82;;;0.40;;
73266;SDS011;61495;53.400;7.608;2022-12-07T04:49:22;1.58;;;0.25;;
73266;SDS011;61495;53.400;7.608;2022-12-07T04:51:48;2.05;;;0.60;;
73266;SDS011;61495;53.400;7.608;2022-12-07T04:54:14;0.47;;;0.20;;
73266;SDS011;61495;53.400;7.608;2022-12-07T04:56:40;1.50;;;0.55;;
73266;SDS011;61495;53.400;7.608;2022-12-07T04:59:06;1.88;;;0.50;;
73266;SDS011;61495;53.400;7.608;2022-12-07T05:01:32;1.85;;;0.40;;
73266;SDS011;61495;53.400;7.608;2022-12-07T05:03:58;3.63;;;0.60;;
73266;SDS011;61495;53.400;7.608;2022-12-07T05:06:24;3.13;;;0.52;;
73266;SDS011;61495;53.400;7.608;2022-12-07T05:08:50;3.50;;;0.57;;
73266;SDS011;61495;53.400;7.608;2022-12-07T05:11:15;2.15;;;0.80;;
73266;SDS011;61495;53.400;7.608;2022-12-07T05:14:00;3.05;;;0.60;;
73266;SDS011;61495;53.400;7.608;2022-12-07T05:16:26;4.53;;;1.08;;
73266;SDS011;61495;53.400;7.608;2022-12-07T05:18:52;2.72;;;0.50;;
73266;SDS011;61495;53.400;7.608;2022-12-07T05:21:17;5.10;;;1.05;;
73266;SDS011;61495;53.400;7.608;2022-12-07T05:23:43;2.97;;;0.35;;
73266;SDS011;61495;53.400;7.608;2022-12-07T05:26:08;2.35;;;0.43;;
73266;SDS011;61495;53.400;7.608;2022-12-07T05:28:34;4.47;;;0.55;;
73266;SDS011;61495;53.400;7.608;2022-12-07T05:30:59;3.33;;;0.60;;
73266;SDS011;61495;53.400;7.608;2022-12-07T05:33:24;1.00;;;0.82;;
73266;SDS011;61495;53.400;7.608;2022-12-07T05:35:50;2.42;;;0.38;;
73266;SDS011;61495;53.400;7.608;2022-12-07T05:38:15;3.13;;;0.40;;
73266;SDS011;61495;53.400;7.608;2022-12-07T05:40:40;1.17;;;0.22;;
73266;SDS011;61495;53.400;7.608;2022-12-07T05:43:06;4.63;;;0.60;;
73266;SDS011;61495;53.400;7.608;2022-12-07T05:45:31;3.35;;;0.50;;
73266;SDS011;61495;53.400;7.608;2022-12-07T05:47:57;1.13;;;0.50;;
73266;SDS011;61495;53.400;7.608;2022-12-07T05:50:22;1.13;;;0.70;;
73266;SDS011;61495;53.400;7.608;2022-12-07T05:52:47;1.05;;;0.43;;
73266;SDS011;61495;53.400;7.608;2022-12-07T05:55:13;1.85;;;0.60;;
73266;SDS011;61495;53.400;7.608;2022-12-07T05:57:38;2.50;;;0.55;;
73266;SDS011;61495;53.400;7.608;2022-12-07T06:00:04;2.22;;;0.77;;
73266;SDS011;61495;53.400;7.608;2022-12-07T06:02:30;1.65;;;1.02;;
73266;SDS011;61495;53.400;7.608;2022-12-07T06:04:56;3.00;;;0.60;;
73266;SDS011;61495;53.400;7.608;2022-12-07T06:07:21;2.03;;;0.70;;
73266;SDS011;61495;53.400;7.608;2022-12-07T06:09:46;1.35;;;0.50;;
73266;SDS011;61495;53.400;7.608;2022-12-07T06:12:12;3.75;;;0.88;;
73266;SDS011;61495;53.400;7.608;2022-12-07T06:14:57;2.33;;;0.50;;
73266;SDS011;61495;53.400;7.608;2022-12-07T06:17:23;4.22;;;0.93;;
73266;SDS011;61495;53.400;7.608;2022-12-07T06:19:48;3.72;;;0.70;;
73266;SDS011;61495;53.400;7.608;2022-12-07T06:22:14;2.85;;;1.27;;
73266;SDS011;61495;53.400;7.608;2022-12-07T06:24:41;0.88;;;0.32;;
73266;SDS011;61495;53.400;7.608;2022-12-07T06:27:07;2.50;;;0.68;;
73266;SDS011;61495;53.400;7.608;2022-12-07T06:29:32;1.98;;;0.73;;
73266;SDS011;61495;53.400;7.608;2022-12-07T06:31:58;2.10;;;1.02;;
73266;SDS011;61495;53.400;7.608;2022-12-07T06:34:24;1.40;;;0.22;;
73266;SDS011;61495;53.400;7.608;2022-12-07T06:36:50;2.22;;;0.60;;
73266;SDS011;61495;53.400;7.608;2022-12-07T06:39:19;3.80;;;0.77;;
73266;SDS011;61495;53.400;7.608;2022-12-07T06:41:46;2.22;;;0.80;;
73266;SDS011;61495;53.400;7.608;2022-12-07T06:44:12;3.40;;;0.90;;
73266;SDS011;61495;53.400;7.608;2022-12-07T06:46:38;1.33;;;0.63;;
73266;SDS011;61495;53.400;7.608;2022-12-07T06:49:04;2.65;;;0.82;;
73266;SDS011;61495;53.400;7.608;2022-12-07T06:51:30;1.67;;;0.68;;
73266;SDS011;61495;53.400;7.608;2022-12-07T06:53:56;2.60;;;0.77;;
73266;SDS011;61495;53.400;7.608;2022-12-07T06:56:22;3.95;;;1.00;;
73266;SDS011;61495;53.400;7.608;2022-12-07T06:58:47;5.47;;;1.13;;
73266;SDS011;61495;53.400;7.608;2022-12-07T07:01:13;3.65;;;0.63;;
73266;SDS011;61495;53.400;7.608;2022-12-07T07:03:40;1.52;;;0.60;;
73266;SDS011;61495;53.400;7.608;2022-12-07T07:06:06;4.30;;;0.70;;
73266;SDS011;61495;53.400;7.608;2022-12-07T07:08:35;3.30;;;0.57;;
73266;SDS011;61495;53.400;7.608;2022-12-07T07:11:02;1.08;;;0.43;;
73266;SDS011;61495;53.400;7.608;2022-12-07T07:13:28;2.22;;;0.60;;
73266;SDS011;61495;53.400;7.608;2022-12-07T07:15:53;2.75;;;0.70;;
73266;SDS011;61495;53.400;7.608;2022-12-07T07:18:20;4.70;;;0.60;;
73266;SDS011;61495;53.400;7.608;2022-12-07T07:20:45;2.63;;;0.77;;
73266;SDS011;61495;53.400;7.608;2022-12-07T07:23:11;2.63;;;0.60;;
73266;SDS011;61495;53.400;7.608;2022-12-07T07:25:36;8.18;;;0.93;;
73266;SDS011;61495;53.400;7.608;2022-12-07T07:28:02;2.50;;;0.63;;
73266;SDS011;61495;53.400;7.608;2022-12-07T07:30:28;2.60;;;0.77;;
73266;SDS011;61495;53.400;7.608;2022-12-07T07:32:57;1.33;;;0.70;;
73266;SDS011;61495;53.400;7.608;2022-12-07T07:35:24;3.00;;;0.80;;
73266;SDS011;61495;53.400;7.608;2022-12-07T07:37:50;3.35;;;0.90;;
73266;SDS011;61495;53.400;7.608;2022-12-07T07:40:15;2.13;;;0.73;;
73266;SDS011;61495;53.400;7.608;2022-12-07T07:42:41;2.47;;;0.82;;
73266;SDS011;61495;53.400;7.608;2022-12-07T07:45:07;3.88;;;1.23;;
73266;SDS011;61495;53.400;7.608;2022-12-07T07:47:33;3.92;;;1.20;;
73266;SDS011;61495;53.400;7.608;2022-12-07T07:49:58;3.08;;;0.93;;
73266;SDS011;61495;53.400;7.608;2022-12-07T07:52:24;7.05;;;1.00;;
73266;SDS011;61495;53.400;7.608;2022-12-07T07:54:50;2.58;;;0.90;;
73266;SDS011;61495;53.400;7.608;2022-12-07T07:57:16;2.63;;;0.75;;
73266;SDS011;61495;53.400;7.608;2022-12-07T07:59:42;4.43;;;0.90;;
73266;SDS011;61495;53.400;7.608;2022-12-07T08:02:09;2.15;;;0.80;;
73266;SDS011;61495;53.400;7.608;2022-12-07T08:04:39;4.82;;;1.02;;
73266;SDS011;61495;53.400;7.608;2022-12-07T08:07:04;2.75;;;0.57;;
73266;SDS011;61495;53.400;7.608;2022-12-07T08:09:30;5.32;;;1.30;;
73266;SDS011;61495;53.400;7.608;2022-12-07T08:11:55;4.43;;;1.10;;
73266;SDS011;61495;53.400;7.608;2022-12-07T08:14:20;7.85;;;2.05;;
73266;SDS011;61495;53.400;7.608;2022-12-07T08:16:46;2.80;;;0.98;;
73266;SDS011;61495;53.400;7.608;2022-12-07T08:19:11;6.75;;;1.27;;
73266;SDS011;61495;53.400;7.608;2022-12-07T08:21:37;7.85;;;1.17;;
73266;SDS011;61495;53.400;7.608;2022-12-07T08:24:02;4.35;;;0.93;;
73266;SDS011;61495;53.400;7.608;2022-12-07T08:26:28;3.13;;;0.77;;
73266;SDS011;61495;53.400;7.608;2022-12-07T08:28:53;3.35;;;0.93;;
73266;SDS011;61495;53.400;7.608;2022-12-07T08:31:18;4.53;;;0.85;;
73266;SDS011;61495;53.400;7.608;2022-12-07T08:33:45;4.10;;;0.90;;
73266;SDS011;61495;53.400;7.608;2022-12-07T08:36:11;5.63;;;1.30;;
73266;SDS011;61495;53.400;7.608;2022-12-07T08:38:38;3.55;;;0.55;;
73266;SDS011;61495;53.400;7.608;2022-12-07T08:41:05;4.13;;;0.77;;
73266;SDS011;61495;53.400;7.608;2022-12-07T08:43:31;4.40;;;0.50;;
73266;SDS011;61495;53.400;7.608;2022-12-07T08:46:03;0.98;;;0.32;;
73266;SDS011;61495;53.400;7.608;2022-12-07T08:48:34;4.90;;;0.80;;
73266;SDS011;61495;53.400;7.608;2022-12-07T08:51:03;1.63;;;0.60;;
73266;SDS011;61495;53.400;7.608;2022-12-07T08:53:29;1.02;;;0.40;;
73266;SDS011;61495;53.400;7.608;2022-12-07T08:55:55;2.92;;;0.50;;
73266;SDS011;61495;53.400;7.608;2022-12-07T08:58:21;4.25;;;0.93;;
73266;SDS011;61495;53.400;7.608;2022-12-07T09:00:47;3.00;;;0.75;;
73266;SDS011;61495;53.400;7.608;2022-12-07T09:03:12;3.10;;;0.70;;
73266;SDS011;61495;53.400;7.608;2022-12-07T09:05:38;2.90;;;0.60;;
73266;SDS011;61495;53.400;7.608;2022-12-07T09:08:03;3.20;;;0.90;;
73266;SDS011;61495;53.400;7.608;2022-12-07T09:10:29;3.90;;;0.85;;
73266;SDS011;61495;53.400;7.608;2022-12-07T09:12:54;4.13;;;0.90;;
73266;SDS011;61495;53.400;7.608;2022-12-07T09:15:20;2.33;;;0.77;;
73266;SDS011;61495;53.400;7.608;2022-12-07T09:17:45;3.22;;;0.82;;
73266;SDS011;61495;53.400;7.608;2022-12-07T09:20:11;4.13;;;1.52;;
73266;SDS011;61495;53.400;7.608;2022-12-07T09:22:37;6.85;;;1.10;;
73266;SDS011;61495;53.400;7.608;2022-12-07T09:25:02;4.22;;;1.48;;
73266;SDS011;61495;53.400;7.608;2022-12-07T09:27:28;4.22;;;1.05;;
73266;SDS011;61495;53.400;7.608;2022-12-07T09:29:54;3.58;;;1.40;;
73266;SDS011;61495;53.400;7.608;2022-12-07T09:32:20;2.25;;;0.73;;
73266;SDS011;61495;53.400;7.608;2022-12-07T09:34:45;3.67;;;0.88;;
73266;SDS011;61495;53.400;7.608;2022-12-07T09:37:11;5.65;;;1.23;;
73266;SDS011;61495;53.400;7.608;2022-12-07T09:39:39;3.78;;;1.25;;
73266;SDS011;61495;53.400;7.608;2022-12-07T09:42:06;2.92;;;0.85;;
73266;SDS011;61495;53.400;7.608;2022-12-07T09:44:33;5.00;;;1.10;;
73266;SDS011;61495;53.400;7.608;2022-12-07T09:46:59;4.72;;;0.80;;
73266;SDS011;61495;53.400;7.608;2022-12-07T09:49:27;3.58;;;0.82;;
73266;SDS011;61495;53.400;7.608;2022-12-07T09:52:37;2.45;;;0.73;;
73266;SDS011;61495;53.400;7.608;2022-12-07T09:54:46;4.88;;;0.95;;
73266;SDS011;61495;53.400;7.608;2022-12-07T09:57:14;3.22;;;1.00;;
73266;SDS011;61495;53.400;7.608;2022-12-07T09:59:40;3.05;;;0.80;;
73266;SDS011;61495;53.400;7.608;2022-12-07T10:02:28;3.80;;;0.80;;
73266;SDS011;61495;53.400;7.608;2022-12-07T10:05:21;6.43;;;1.35;;
73266;SDS011;61495;53.400;7.608;2022-12-07T10:07:51;2.08;;;0.85;;
73266;SDS011;61495;53.400;7.608;2022-12-07T10:10:24;3.13;;;0.73;;
73266;SDS011;61495;53.400;7.608;2022-12-07T10:13:01;3.92;;;0.90;;
73266;SDS011;61495;53.400;7.608;2022-12-07T10:15:42;3.40;;;1.10;;
73266;SDS011;61495;53.400;7.608;2022-12-07T10:21:01;4.07;;;1.20;;
73266;SDS011;61495;53.400;7.608;2022-12-07T10:23:32;4.38;;;1.08;;
73266;SDS011;61495;53.400;7.608;2022-12-07T10:25:58;3.10;;;1.02;;
73266;SDS011;61495;53.400;7.608;2022-12-07T10:28:27;6.15;;;1.45;;
73266;SDS011;61495;53.400;7.608;2022-12-07T10:31:01;3.22;;;0.90;;
73266;SDS011;61495;53.400;7.608;2022-12-07T10:33:48;5.93;;;0.70;;
73266;SDS011;61495;53.400;7.608;2022-12-07T10:39:13;4.60;;;0.90;;
73266;SDS011;61495;53.400;7.608;2022-12-07T10:44:44;2.10;;;0.60;;
73266;SDS011;61495;53.400;7.608;2022-12-07T10:47:24;6.05;;;0.68;;
73266;SDS011;61495;53.400;7.608;2022-12-07T10:50:07;3.83;;;0.68;;
73266;SDS011;61495;53.400;7.608;2022-12-07T11:01:11;2.60;;;0.80;;
73266;SDS011;61495;53.400;7.608;2022-12-07T11:03:46;6.53;;;1.10;;
73266;SDS011;61495;53.400;7.608;2022-12-07T11:06:33;4.13;;;1.30;;
73266;SDS011;61495;53.400;7.608;2022-12-07T11:09:04;4.35;;;1.10;;
73266;SDS011;61495;53.400;7.608;2022-12-07T11:12:09;6.40;;;1.08;;
73266;SDS011;61495;53.400;7.608;2022-12-07T11:21:13;2.55;;;0.70;;
73266;SDS011;61495;53.400;7.608;2022-12-07T11:26:34;3.63;;;1.10;;
73266;SDS011;61495;53.400;7.608;2022-12-07T11:37:29;3.25;;;0.57;;
73266;SDS011;61495;53.400;7.608;2022-12-07T11:40:03;7.28;;;1.10;;
73266;SDS011;61495;53.400;7.608;2022-12-07T11:42:36;3.28;;;0.63;;
73266;SDS011;61495;53.400;7.608;2022-12-07T11:47:36;3.53;;;0.70;;
73266;SDS011;61495;53.400;7.608;2022-12-07T11:52:58;6.18;;;1.30;;
73266;SDS011;61495;53.400;7.608;2022-12-07T11:57:59;4.00;;;1.20;;
73266;SDS011;61495;53.400;7.608;2022-12-07T12:00:30;3.10;;;0.93;;
73266;SDS011;61495;53.400;7.608;2022-12-07T12:03:01;6.10;;;0.80;;
73266;SDS011;61495;53.400;7.608;2022-12-07T12:05:35;4.82;;;0.93;;
73266;SDS011;61495;53.400;7.608;2022-12-07T12:22:28;4.32;;;0.90;;
73266;SDS011;61495;53.400;7.608;2022-12-07T12:25:02;6.80;;;0.98;;
73266;SDS011;61495;53.400;7.608;2022-12-07T12:27:31;4.65;;;0.65;;
73266;SDS011;61495;53.400;7.608;2022-12-07T12:29:59;4.35;;;1.17;;
73266;SDS011;61495;53.400;7.608;2022-12-07T12:32:34;2.38;;;0.57;;
73266;SDS011;61495;53.400;7.608;2022-12-07T12:35:27;4.55;;;1.15;;
73266;SDS011;61495;53.400;7.608;2022-12-07T12:40:44;4.93;;;1.20;;
73266;SDS011;61495;53.400;7.608;2022-12-07T12:57:34;3.28;;;0.85;;
73266;SDS011;61495;53.400;7.608;2022-12-07T13:00:22;3.67;;;1.23;;
73266;SDS011;61495;53.400;7.608;2022-12-07T13:05:18;2.92;;;0.80;;
73266;SDS011;61495;53.400;7.608;2022-12-07T13:10:54;3.95;;;1.00;;
73266;SDS011;61495;53.400;7.608;2022-12-07T13:23:39;5.80;;;1.02;;
73266;SDS011;61495;53.400;7.608;2022-12-07T13:31:36;1.92;;;0.80;;
73266;SDS011;61495;53.400;7.608;2022-12-07T13:34:05;3.33;;;0.57;;
73266;SDS011;61495;53.400;7.608;2022-12-07T13:36:50;2.88;;;1.27;;
73266;SDS011;61495;53.400;7.608;2022-12-07T13:39:20;3.22;;;0.85;;
73266;SDS011;61495;53.400;7.608;2022-12-07T13:41:54;3.38;;;0.95;;
73266;SDS011;61495;53.400;7.608;2022-12-07T13:44:22;5.65;;;1.00;;
73266;SDS011;61495;53.400;7.608;2022-12-07T13:46:50;2.67;;;0.65;;
73266;SDS011;61495;53.400;7.608;2022-12-07T13:49:22;3.60;;;0.60;;
73266;SDS011;61495;53.400;7.608;2022-12-07T13:51:50;3.25;;;0.80;;
73266;SDS011;61495;53.400;7.608;2022-12-07T13:54:16;3.22;;;0.82;;
73266;SDS011;61495;53.400;7.608;2022-12-07T13:56:42;2.33;;;0.47;;
73266;SDS011;61495;53.400;7.608;2022-12-07T13:59:16;3.17;;;1.10;;
73266;SDS011;61495;53.400;7.608;2022-12-07T14:01:45;2.75;;;0.47;;
73266;SDS011;61495;53.400;7.608;2022-12-07T14:06:54;2.72;;;0.80;;
73266;SDS011;61495;53.400;7.608;2022-12-07T14:09:23;4.13;;;0.55;;
73266;SDS011;61495;53.400;7.608;2022-12-07T14:11:50;4.95;;;0.85;;
73266;SDS011;61495;53.400;7.608;2022-12-07T14:14:19;4.93;;;0.52;;
73266;SDS011;61495;53.400;7.608;2022-12-07T14:17:11;3.22;;;1.23;;
73266;SDS011;61495;53.400;7.608;2022-12-07T14:19:42;6.10;;;1.00;;
73266;SDS011;61495;53.400;7.608;2022-12-07T14:22:08;2.00;;;0.50;;
73266;SDS011;61495;53.400;7.608;2022-12-07T14:24:43;1.55;;;0.40;;
73266;SDS011;61495;53.400;7.608;2022-12-07T14:27:18;3.33;;;0.82;;
73266;SDS011;61495;53.400;7.608;2022-12-07T14:29:46;5.45;;;0.75;;
73266;SDS011;61495;53.400;7.608;2022-12-07T14:32:19;3.25;;;0.88;;
73266;SDS011;61495;53.400;7.608;2022-12-07T14:34:53;2.53;;;0.85;;
73266;SDS011;61495;53.400;7.608;2022-12-07T14:37:23;2.28;;;0.80;;
73266;SDS011;61495;53.400;7.608;2022-12-07T14:39:49;3.60;;;0.90;;
73266;SDS011;61495;53.400;7.608;2022-12-07T14:42:14;3.40;;;1.33;;
73266;SDS011;61495;53.400;7.608;2022-12-07T14:44:40;5.90;;;1.20;;
73266;SDS011;61495;53.400;7.608;2022-12-07T14:47:08;4.20;;;1.42;;
73266;SDS011;61495;53.400;7.608;2022-12-07T14:49:35;4.60;;;1.38;;
73266;SDS011;61495;53.400;7.608;2022-12-07T14:52:00;5.50;;;1.70;;
73266;SDS011;61495;53.400;7.608;2022-12-07T14:54:26;5.63;;;1.33;;
73266;SDS011;61495;53.400;7.608;2022-12-07T14:56:56;4.88;;;1.58;;
73266;SDS011;61495;53.400;7.608;2022-12-07T14:59:22;7.47;;;1.73;;
73266;SDS011;61495;53.400;7.608;2022-12-07T15:01:47;5.97;;;2.22;;
73266;SDS011;61495;53.400;7.608;2022-12-07T15:04:13;5.75;;;1.85;;
73266;SDS011;61495;53.400;7.608;2022-12-07T15:06:38;4.20;;;2.00;;
73266;SDS011;61495;53.400;7.608;2022-12-07T15:09:04;5.55;;;1.90;;
73266;SDS011;61495;53.400;7.608;2022-12-07T15:11:30;7.35;;;2.20;;
73266;SDS011;61495;53.400;7.608;2022-12-07T15:13:57;4.10;;;1.92;;
73266;SDS011;61495;53.400;7.608;2022-12-07T15:16:36;7.18;;;3.38;;
73266;SDS011;61495;53.400;7.608;2022-12-07T15:19:05;5.57;;;1.67;;
73266;SDS011;61495;53.400;7.608;2022-12-07T15:21:31;4.45;;;1.50;;
73266;SDS011;61495;53.400;7.608;2022-12-07T15:23:56;3.08;;;0.98;;
73266;SDS011;61495;53.400;7.608;2022-12-07T15:26:22;2.45;;;0.60;;
73266;SDS011;61495;53.400;7.608;2022-12-07T15:28:47;3.53;;;0.47;;
73266;SDS011;61495;53.400;7.608;2022-12-07T15:31:13;2.50;;;0.65;;
73266;SDS011;61495;53.400;7.608;2022-12-07T15:33:39;1.67;;;0.63;;
73266;SDS011;61495;53.400;7.608;2022-12-07T15:36:04;1.98;;;1.13;;
73266;SDS011;61495;53.400;7.608;2022-12-07T15:38:31;0.88;;;0.40;;
73266;SDS011;61495;53.400;7.608;2022-12-07T15:40:56;2.38;;;0.52;;
73266;SDS011;61495;53.400;7.608;2022-12-07T15:43:22;1.80;;;0.63;;
73266;SDS011;61495;53.400;7.608;2022-12-07T15:46:06;2.17;;;0.32;;
73266;SDS011;61495;53.400;7.608;2022-12-07T15:48:31;1.10;;;0.32;;
73266;SDS011;61495;53.400;7.608;2022-12-07T15:51:01;4.28;;;0.73;;
73266;SDS011;61495;53.400;7.608;2022-12-07T15:53:28;2.42;;;0.90;;
73266;SDS011;61495;53.400;7.608;2022-12-07T15:55:53;1.80;;;0.50;;
73266;SDS011;61495;53.400;7.608;2022-12-07T15:58:19;4.40;;;0.77;;
73266;SDS011;61495;53.400;7.608;2022-12-07T16:00:44;5.68;;;1.27;;
73266;SDS011;61495;53.400;7.608;2022-12-07T16:03:09;3.20;;;0.88;;
73266;SDS011;61495;53.400;7.608;2022-12-07T16:05:35;3.95;;;1.30;;
73266;SDS011;61495;53.400;7.608;2022-12-07T16:08:00;2.55;;;0.63;;
73266;SDS011;61495;53.400;7.608;2022-12-07T16:10:29;2.03;;;0.93;;
73266;SDS011;61495;53.400;7.608;2022-12-07T16:12:54;3.13;;;0.80;;
73266;SDS011;61495;53.400;7.608;2022-12-07T16:15:20;2.03;;;0.75;;
73266;SDS011;61495;53.400;7.608;2022-12-07T16:17:45;3.40;;;1.05;;
73266;SDS011;61495;53.400;7.608;2022-12-07T16:20:11;3.63;;;1.90;;
73266;SDS011;61495;53.400;7.608;2022-12-07T16:22:36;5.97;;;2.35;;
73266;SDS011;61495;53.400;7.608;2022-12-07T16:25:02;5.78;;;2.35;;
73266;SDS011;61495;53.400;7.608;2022-12-07T16:27:28;6.50;;;1.98;;
73266;SDS011;61495;53.400;7.608;2022-12-07T16:29:53;5.03;;;2.05;;
73266;SDS011;61495;53.400;7.608;2022-12-07T16:32:18;3.33;;;1.50;;
73266;SDS011;61495;53.400;7.608;2022-12-07T16:34:44;7.97;;;2.10;;
73266;SDS011;61495;53.400;7.608;2022-12-07T16:37:09;5.13;;;1.90;;
73266;SDS011;61495;53.400;7.608;2022-12-07T16:39:35;4.80;;;1.77;;
73266;SDS011;61495;53.400;7.608;2022-12-07T16:42:01;7.30;;;2.85;;
73266;SDS011;61495;53.400;7.608;2022-12-07T16:44:27;7.22;;;2.55;;
73266;SDS011;61495;53.400;7.608;2022-12-07T16:46:53;4.43;;;1.30;;
73266;SDS011;61495;53.400;7.608;2022-12-07T16:49:18;3.10;;;1.02;;
73266;SDS011;61495;53.400;7.608;2022-12-07T16:51:44;2.33;;;0.70;;
73266;SDS011;61495;53.400;7.608;2022-12-07T16:54:12;2.40;;;0.55;;
73266;SDS011;61495;53.400;7.608;2022-12-07T16:56:38;2.90;;;0.75;;
73266;SDS011;61495;53.400;7.608;2022-12-07T16:59:04;3.08;;;0.95;;
73266;SDS011;61495;53.400;7.608;2022-12-07T17:01:29;3.55;;;0.65;;
73266;SDS011;61495;53.400;7.608;2022-12-07T17:03:56;2.30;;;0.70;;
73266;SDS011;61495;53.400;7.608;2022-12-07T17:06:23;3.50;;;0.90;;
73266;SDS011;61495;53.400;7.608;2022-12-07T17:08:50;5.50;;;1.10;;
73266;SDS011;61495;53.400;7.608;2022-12-07T17:11:23;3.72;;;1.10;;
73266;SDS011;61495;53.400;7.608;2022-12-07T17:13:53;4.47;;;1.20;;
73266;SDS011;61495;53.400;7.608;2022-12-07T17:16:37;2.10;;;0.90;;